TAF KMBL
KMBL 072340Z 0800/0824 15005KT 3SM -SHSN BR OVC025 TEMPO 0800/0803 2SM -SHSN FM080300 00000KT 1 1/2SM -SHSN BR OVC035 FM080900 VRB03KT 2SM -SHSN BR OVC022 FM081200 31006KT P6SM OVC025 FM081500 31010G16KT P6SM VCSH BKN030 FM081800 31010G16KT P6SM BKN035
METAR KMBL
WC KMBL
WS KMBL
WV KMBL